Time,TemperatureF,DewpointF,PressureIn,WindDirection,WindDirectionDegrees,WindSpeedMPH,WindSpeedGustMPH,Humidity,HourlyPrecipIn,Conditions,Clouds,dailyrainin,SolarRadiationWatts/m^2,SoftwareType,DateUTC
2013-04-15 00:05:00,53.8,34.0,29.71,WNW,293,0.0,3.0,47,0.00,,,0.00,0,weatherlink.com 1.10,2013-04-15 05:05:00,
2013-04-15 00:23:00,53.3,35.0,29.71,WNW,293,0.0,0.0,49,0.00,,,0.00,0,weatherlink.com 1.10,2013-04-15 05:23:00,
2013-04-15 00:40:00,52.8,34.0,29.72,WNW,293,0.0,0.0,49,0.00,,,0.00,0,weatherlink.com 1.10,2013-04-15 05:40:00,
2013-04-15 00:59:00,52.4,34.0,29.72,WNW,293,0.0,0.0,49,0.00,,,0.00,0,weatherlink.com 1.10,2013-04-15 05:59:00,
2013-04-15 01:17:00,52.2,34.0,29.70,WNW,293,0.0,0.0,49,0.00,,,0.00,0,weatherlink.com 1.10,2013-04-15 06:17:00,
2013-04-15 01:35:00,51.8,33.0,29.69,WNW,293,0.0,0.0,48,0.00,,,0.00,0,weatherlink.com 1.10,2013-04-15 06:35:00,
2013-04-15 01:53:00,51.2,33.0,29.68,WNW,293,0.0,2.0,50,0.00,,,0.00,0,weatherlink.com 1.10,2013-04-15 06:53:00,
2013-04-15 03:04:00,49.0,34.0,29.74,WNW,293,0.0,0.0,55,0.00,,,0.00,0,weatherlink.com 1.10,2013-04-15 08:04:00,
2013-04-15 03:23:00,49.0,35.0,29.73,WNW,293,0.0,0.0,59,0.00,,,0.00,0,weatherlink.com 1.10,2013-04-15 08:23:00,
2013-04-15 03:42:00,48.5,35.0,29.75,WNW,293,0.0,0.0,60,0.00,,,0.00,0,weatherlink.com 1.10,2013-04-15 08:42:00,
2013-04-15 04:01:00,48.2,35.0,29.75,WNW,293,0.0,1.0,61,0.00,,,0.00,0,weatherlink.com 1.10,2013-04-15 09:01:00,
2013-04-15 04:18:00,48.2,36.0,29.74,WNW,293,0.0,0.0,62,0.00,,,0.00,0,weatherlink.com 1.10,2013-04-15 09:18:00,
2013-04-15 04:36:00,48.1,36.0,29.76,WNW,293,0.0,0.0,63,0.00,,,0.00,0,weatherlink.com 1.10,2013-04-15 09:36:00,
2013-04-15 04:55:00,48.2,37.0,29.76,WNW,293,0.0,3.0,64,0.01,,,0.01,0,weatherlink.com 1.10,2013-04-15 09:55:00,
2013-04-15 05:13:00,47.4,40.0,29.74,WNW,293,0.0,4.0,74,0.02,,,0.02,0,weatherlink.com 1.10,2013-04-15 10:13:00,
2013-04-15 05:49:00,46.4,40.0,29.74,WNW,293,0.0,0.0,77,0.02,,,0.02,0,weatherlink.com 1.10,2013-04-15 10:49:00,
2013-04-15 06:24:00,46.0,40.0,29.75,WNW,293,0.0,0.0,80,0.00,,,0.02,0,weatherlink.com 1.10,2013-04-15 11:24:00,
2013-04-15 06:42:00,45.8,40.0,29.77,WNW,293,0.0,0.0,80,0.00,,,0.02,0,weatherlink.com 1.10,2013-04-15 11:42:00,
2013-04-15 06:59:00,45.5,40.0,29.78,WNW,293,0.0,0.0,80,0.00,,,0.02,0,weatherlink.com 1.10,2013-04-15 11:59:00,
2013-04-15 07:34:00,45.5,40.0,29.78,WNW,293,0.0,0.0,80,0.00,,,0.02,30,weatherlink.com 1.10,2013-04-15 12:34:00,
2013-04-15 07:52:00,45.9,40.0,29.81,WNW,293,0.0,0.0,79,0.00,,,0.02,28,weatherlink.com 1.10,2013-04-15 12:52:00,
2013-04-15 08:09:00,46.4,41.0,29.82,WNW,293,0.0,1.0,80,0.00,,,0.02,28,weatherlink.com 1.10,2013-04-15 13:09:00,
2013-04-15 08:29:00,46.7,40.0,29.82,WNW,293,0.0,0.0,78,0.00,,,0.02,44,weatherlink.com 1.10,2013-04-15 13:29:00,
2013-04-15 08:46:00,47.2,40.0,29.82,WNW,293,0.0,3.0,76,0.00,,,0.02,62,weatherlink.com 1.10,2013-04-15 13:46:00,
2013-04-15 09:05:00,47.9,36.0,29.82,WNW,303,0.0,8.0,64,0.00,,,0.02,69,weatherlink.com 1.10,2013-04-15 14:05:00,
2013-04-15 09:23:00,48.4,36.0,29.83,WNW,303,1.0,5.0,63,0.00,,,0.02,91,weatherlink.com 1.10,2013-04-15 14:23:00,
2013-04-15 09:40:00,48.5,36.0,29.83,NW,312,0.0,5.0,61,0.00,,,0.02,114,weatherlink.com 1.10,2013-04-15 14:40:00,
2013-04-15 09:57:00,47.8,34.0,29.84,NNW,329,5.0,10.0,59,0.00,,,0.02,146,weatherlink.com 1.10,2013-04-15 14:57:00,
2013-04-15 10:15:00,47.5,34.0,29.84,NNW,328,0.0,7.0,59,0.00,,,0.02,172,weatherlink.com 1.10,2013-04-15 15:15:00,
2013-04-15 10:33:00,47.4,34.0,29.83,NNW,330,4.0,8.0,60,0.00,,,0.02,165,weatherlink.com 1.10,2013-04-15 15:33:00,
2013-04-15 10:50:00,47.5,35.0,29.83,NNW,332,2.0,10.0,61,0.00,,,0.02,297,weatherlink.com 1.10,2013-04-15 15:50:00,
2013-04-15 11:08:00,48.3,35.0,29.84,NNW,330,0.0,8.0,60,0.00,,,0.02,237,weatherlink.com 1.10,2013-04-15 16:08:00,
2013-04-15 11:26:00,48.0,35.0,29.85,NNW,334,0.0,9.0,60,0.00,,,0.02,260,weatherlink.com 1.10,2013-04-15 16:26:00,
2013-04-15 11:43:00,48.9,35.0,29.85,NNW,342,0.0,10.0,59,0.00,,,0.02,306,weatherlink.com 1.10,2013-04-15 16:43:00,
2013-04-15 12:01:00,48.7,35.0,29.87,NNW,345,3.0,8.0,58,0.00,,,0.02,243,weatherlink.com 1.10,2013-04-15 17:01:00,
2013-04-15 12:19:00,49.0,35.0,29.87,NNW,345,5.0,6.0,59,0.00,,,0.02,230,weatherlink.com 1.10,2013-04-15 17:19:00,
2013-04-15 12:37:00,49.0,34.0,29.87,NNW,339,0.0,7.0,56,0.00,,,0.02,246,weatherlink.com 1.10,2013-04-15 17:37:00,
2013-04-15 12:55:00,49.2,34.0,29.87,North,355,5.0,9.0,55,0.00,,,0.02,294,weatherlink.com 1.10,2013-04-15 17:55:00,
2013-04-15 13:13:00,48.5,32.0,29.86,North,351,3.0,10.0,53,0.00,,,0.02,311,weatherlink.com 1.10,2013-04-15 18:13:00,
2013-04-15 13:31:00,48.3,31.0,29.86,North,360,7.0,9.0,52,0.00,,,0.02,188,weatherlink.com 1.10,2013-04-15 18:31:00,
2013-04-15 13:48:00,48.3,31.0,29.86,North,350,1.0,9.0,52,0.00,,,0.02,236,weatherlink.com 1.10,2013-04-15 18:48:00,
2013-04-15 14:06:00,48.2,31.0,29.85,NNW,348,3.0,11.0,51,0.00,,,0.02,265,weatherlink.com 1.10,2013-04-15 19:06:00,
2013-04-15 14:23:00,48.5,31.0,29.85,North,355,4.0,12.0,50,0.00,,,0.02,211,weatherlink.com 1.10,2013-04-15 19:23:00,
2013-04-15 14:59:00,49.2,30.0,29.84,North,355,5.0,11.0,48,0.00,,,0.02,209,weatherlink.com 1.10,2013-04-15 19:59:00,
2013-04-15 15:17:00,49.5,32.0,29.83,North,355,4.0,8.0,50,0.00,,,0.02,292,weatherlink.com 1.10,2013-04-15 20:17:00,
2013-04-15 15:35:00,50.1,31.0,29.83,North,10,5.0,12.0,47,0.00,,,0.02,192,weatherlink.com 1.10,2013-04-15 20:35:00,
2013-04-15 15:52:00,50.1,31.0,29.83,North,11,6.0,12.0,48,0.00,,,0.02,195,weatherlink.com 1.10,2013-04-15 20:52:00,
2013-04-15 16:10:00,50.5,31.0,29.82,North,5,4.0,7.0,47,0.00,,,0.02,171,weatherlink.com 1.10,2013-04-15 21:10:00,
2013-04-15 16:27:00,51.0,31.0,29.82,North,10,3.0,8.0,47,0.00,,,0.02,162,weatherlink.com 1.10,2013-04-15 21:27:00,
2013-04-15 16:44:00,51.5,31.0,29.82,NNE,15,1.0,9.0,45,0.00,,,0.02,163,weatherlink.com 1.10,2013-04-15 21:44:00,
2013-04-15 17:02:00,51.1,30.0,29.82,North,5,7.0,12.0,45,0.00,,,0.02,111,weatherlink.com 1.10,2013-04-15 22:02:00,
2013-04-15 17:20:00,50.4,31.0,29.83,North,5,5.0,13.0,47,0.00,,,0.02,97,weatherlink.com 1.10,2013-04-15 22:20:00,
2013-04-15 17:37:00,49.8,30.0,29.84,North,10,5.0,11.0,47,0.00,,,0.02,67,weatherlink.com 1.10,2013-04-15 22:37:00,
2013-04-15 17:57:00,49.5,30.0,29.85,North,5,7.0,12.0,47,0.00,,,0.02,63,weatherlink.com 1.10,2013-04-15 22:57:00,
2013-04-15 18:19:00,49.4,31.0,29.86,North,5,6.0,10.0,49,0.00,,,0.02,47,weatherlink.com 1.10,2013-04-15 23:19:00,
2013-04-15 18:35:00,49.1,30.0,29.86,NNE,17,1.0,11.0,48,0.00,,,0.02,30,weatherlink.com 1.10,2013-04-15 23:35:00,
2013-04-15 18:52:00,49.0,31.0,29.87,North,10,3.0,12.0,49,0.00,,,0.02,37,weatherlink.com 1.10,2013-04-15 23:52:00,
2013-04-15 19:08:00,48.9,31.0,29.88,North,9,3.0,9.0,50,0.00,,,0.02,32,weatherlink.com 1.10,2013-04-16 00:08:00,
2013-04-15 19:24:00,48.8,31.0,29.88,NNE,14,1.0,11.0,51,0.00,,,0.02,19,weatherlink.com 1.10,2013-04-16 00:24:00,
2013-04-15 19:40:00,48.4,31.0,29.89,NNE,14,5.0,10.0,50,0.00,,,0.02,7,weatherlink.com 1.10,2013-04-16 00:40:00,
2013-04-15 19:57:00,47.9,30.0,29.90,North,5,4.0,15.0,50,0.00,,,0.02,0,weatherlink.com 1.10,2013-04-16 00:57:00,
2013-04-15 20:13:00,47.8,31.0,29.91,North,5,2.0,9.0,51,0.00,,,0.02,0,weatherlink.com 1.10,2013-04-16 01:13:00,
2013-04-15 20:30:00,47.6,31.0,29.92,North,5,0.0,8.0,53,0.00,,,0.02,0,weatherlink.com 1.10,2013-04-16 01:30:00,
2013-04-15 20:47:00,47.4,32.0,29.93,North,5,0.0,7.0,55,0.00,,,0.02,0,weatherlink.com 1.10,2013-04-16 01:47:00,
2013-04-15 21:04:00,47.3,32.0,29.94,North,5,1.0,8.0,56,0.00,,,0.02,0,weatherlink.com 1.10,2013-04-16 02:04:00,
2013-04-15 21:20:00,47.2,32.0,29.95,North,5,2.0,12.0,56,0.00,,,0.02,0,weatherlink.com 1.10,2013-04-16 02:20:00,
2013-04-15 21:37:00,47.1,32.0,29.97,North,9,1.0,9.0,55,0.00,,,0.02,0,weatherlink.com 1.10,2013-04-16 02:37:00,
2013-04-15 21:53:00,47.0,31.0,29.98,North,5,0.0,12.0,54,0.00,,,0.02,0,weatherlink.com 1.10,2013-04-16 02:53:00,
2013-04-15 22:10:00,46.9,32.0,29.99,North,5,6.0,9.0,55,0.00,,,0.02,0,weatherlink.com 1.10,2013-04-16 03:10:00,
2013-04-15 22:27:00,46.5,31.0,29.99,NNW,348,1.0,11.0,55,0.00,,,0.02,0,weatherlink.com 1.10,2013-04-16 03:27:00,
2013-04-15 22:43:00,46.0,31.0,29.99,North,360,5.0,11.0,56,0.00,,,0.02,0,weatherlink.com 1.10,2013-04-16 03:43:00,
2013-04-15 22:59:00,45.6,31.0,29.99,North,5,6.0,11.0,57,0.00,,,0.02,0,weatherlink.com 1.10,2013-04-16 03:59:00,
2013-04-15 23:16:00,45.2,31.0,29.99,North,5,4.0,12.0,57,0.00,,,0.02,0,weatherlink.com 1.10,2013-04-16 04:16:00,
2013-04-15 23:32:00,45.1,32.0,29.99,North,5,3.0,10.0,59,0.00,,,0.02,0,weatherlink.com 1.10,2013-04-16 04:32:00,
2013-04-15 23:49:00,44.8,31.0,29.98,North,11,8.0,11.0,59,0.00,,,0.02,0,weatherlink.com 1.10,2013-04-16 04:49:00,